• Join FlightAware (Why Join?)
  • Login
  • US Flag 
11:17AM EST


 

Airport Tracker/Info


-or-


 

Live Flight TrackerFlight Track Log ✈ AVN20 ✈ 08-Nov-2013 ✈ NVVV / VLI - YBBN / BNE

Flight Track Log - Related Links

Times and Time Zones

All times are in EST time to prevent confusion due to time zone crossing. See the AVN20 flight status page for this flight to view local times or setup timezone preferences in your user account.

Time Position Orientation Groundspeed Altitude Reporting Facility
EST Latitude Longitude Course Direction KTS MPH feet Rate Location/Type
12:13AM -17.8865 168.0611 233° Southwest  Level FlightAware Approximate
12:14AM -17.9332 167.9963 233° Southwest  Level FlightAware Approximate
12:15AM -17.9799 167.9315 233° Southwest  Level FlightAware Approximate
12:16AM -18.0266 167.8667 233° Southwest  Level FlightAware Approximate
12:17AM -18.0733 167.8018 233° Southwest  Level FlightAware Approximate
12:18AM -18.1199 167.7369 233° Southwest  Level FlightAware Approximate
12:19AM -18.1666 167.6720 233° Southwest  Level FlightAware Approximate
12:20AM -18.2132 167.6070 233° Southwest  Level FlightAware Approximate
12:21AM -18.2598 167.5420 233° Southwest  Level FlightAware Approximate
12:22AM -18.3063 167.4769 233° Southwest  Level FlightAware Approximate
12:23AM -18.3529 167.4119 233° Southwest  Level FlightAware Approximate
12:24AM -18.3994 167.3468 233° Southwest  Level FlightAware Approximate
12:25AM -18.4459 167.2816 233° Southwest  Level FlightAware Approximate
12:26AM -18.4923 167.2164 233° Southwest  Level FlightAware Approximate
12:27AM -18.5388 167.1512 233° Southwest  Level FlightAware Approximate
12:28AM -18.5852 167.0860 233° Southwest  Level FlightAware Approximate
12:29AM -18.6316 167.0207 233° Southwest  Level FlightAware Approximate
12:30AM -18.6780 166.9554 233° Southwest  Level FlightAware Approximate
12:31AM -18.7244 166.8900 233° Southwest  Level FlightAware Approximate
12:32AM -18.7707 166.8246 233° Southwest  Level FlightAware Approximate
12:33AM -18.8170 166.7592 233° Southwest  Level FlightAware Approximate
12:34AM -18.8633 166.6937 233° Southwest  Level FlightAware Approximate
12:35AM -18.9096 166.6282 233° Southwest  Level FlightAware Approximate
12:36AM -18.9559 166.5627 233° Southwest  Level FlightAware Approximate
12:37AM -19.0021 166.4971 233° Southwest  Level FlightAware Approximate
12:38AM -19.0483 166.4315 233° Southwest  Level FlightAware Approximate
12:39AM -19.0944 166.3658 233° Southwest  Level FlightAware Approximate
12:40AM -19.1406 166.3001 233° Southwest  Level FlightAware Approximate
12:41AM -19.1867 166.2344 233° Southwest  Level FlightAware Approximate
12:42AM -19.2328 166.1686 233° Southwest  Level FlightAware Approximate
12:43AM -19.2789 166.1028 233° Southwest  Level FlightAware Approximate
12:44AM -19.3250 166.0370 233° Southwest  Level FlightAware Approximate
12:45AM -19.3710 165.9711 233° Southwest  Level FlightAware Approximate
12:46AM -19.4170 165.9052 233° Southwest  Level FlightAware Approximate
12:47AM -19.4630 165.8393 234° Southwest  Level FlightAware Approximate
12:48AM -19.5090 165.7733 234° Southwest  Level FlightAware Approximate
12:49AM -19.5549 165.7073 234° Southwest  Level FlightAware Approximate
12:50AM -19.6008 165.6412 234° Southwest  Level FlightAware Approximate
12:51AM -19.6467 165.5751 234° Southwest  Level FlightAware Approximate
12:52AM -19.6926 165.5090 234° Southwest  Level FlightAware Approximate
12:53AM -19.7384 165.4428 234° Southwest  Level FlightAware Approximate
12:54AM -19.7843 165.3766 234° Southwest  Level FlightAware Approximate
12:55AM -19.8301 165.3104 234° Southwest  Level FlightAware Approximate
12:56AM -19.8758 165.2441 234° Southwest  Level FlightAware Approximate
12:57AM -19.9216 165.1778 234° Southwest  Level FlightAware Approximate
12:58AM -19.9673 165.1114 234° Southwest  Level FlightAware Approximate
12:59AM -20.0131 165.0451 236° Southwest  Level Estimated
01:00AM -20.0589 164.9787 234° Southwest  Level FlightAware Approximate
01:01AM -20.1046 164.9123 234° Southwest  Level FlightAware Approximate
01:02AM -20.1503 164.8458 234° Southwest  Level FlightAware Approximate
01:02AM -21.6472 162.6188 235° Southwest 32,000  Level Aus ATC (Calculated)
01:04AM -21.7213 162.5066 235° Southwest  Level FlightAware Approximate
01:05AM -21.7613 162.4459 235° Southwest  Level FlightAware Approximate
01:05AM -21.8676 162.2834 235° Southwest 32,000  Level Aus ATC (Calculated)
01:06AM -21.9235 162.1979 235° Southwest 32,000  Level Aus ATC (Calculated)
01:07AM -21.9634 162.1371 235° Southwest  Level FlightAware Approximate
01:08AM -22.0033 162.0762 235° Southwest  Level FlightAware Approximate
01:09AM -22.0432 162.0152 235° Southwest  Level FlightAware Approximate
01:09AM -22.1400 161.8659 235° Southwest 32,000  Level Aus ATC (Calculated)
01:11AM -22.2107 161.7574 235° Southwest  Level FlightAware Approximate
01:12AM -22.2500 161.6971 235° Southwest  Level FlightAware Approximate
01:13AM -22.2892 161.6367 235° Southwest  Level FlightAware Approximate
01:14AM -22.3284 161.5763 235° Southwest  Level FlightAware Approximate
01:15AM -22.3676 161.5159 235° Southwest  Level FlightAware Approximate
01:16AM -22.4068 161.4554 235° Southwest  Level FlightAware Approximate
01:17AM -22.4460 161.3949 235° Southwest  Level FlightAware Approximate
01:18AM -22.4851 161.3343 235° Southwest  Level FlightAware Approximate
01:19AM -22.5242 161.2738 235° Southwest  Level FlightAware Approximate
01:20AM -22.5633 161.2132 235° Southwest  Level FlightAware Approximate
01:21AM -22.6024 161.1525 235° Southwest  Level FlightAware Approximate
01:22AM -22.6414 161.0918 235° Southwest  Level FlightAware Approximate
01:23AM -22.6804 161.0311 235° Southwest  Level FlightAware Approximate
01:24AM -22.7194 160.9704 235° Southwest  Level FlightAware Approximate
01:25AM -22.7584 160.9096 235° Southwest  Level FlightAware Approximate
01:26AM -22.7973 160.8488 235° Southwest  Level FlightAware Approximate
01:27AM -22.8362 160.7879 235° Southwest  Level FlightAware Approximate
01:28AM -22.8751 160.7270 235° Southwest  Level FlightAware Approximate
01:29AM -22.9140 160.6661 235° Southwest  Level FlightAware Approximate
01:30AM -22.9529 160.6052 235° Southwest  Level FlightAware Approximate
01:31AM -22.9917 160.5442 235° Southwest  Level FlightAware Approximate
01:32AM -23.0305 160.4831 235° Southwest  Level FlightAware Approximate
01:33AM -23.0693 160.4221 235° Southwest  Level FlightAware Approximate
01:34AM -23.1080 160.3610 235° Southwest  Level FlightAware Approximate
01:35AM -23.1468 160.2999 235° Southwest  Level FlightAware Approximate
01:36AM -23.1855 160.2387 235° Southwest  Level FlightAware Approximate
01:37AM -23.2242 160.1775 235° Southwest  Level FlightAware Approximate
01:38AM -23.2629 160.1162 235° Southwest  Level FlightAware Approximate
01:39AM -23.3015 160.0550 236° Southwest  Level FlightAware Approximate
01:40AM -23.3401 159.9937 236° Southwest  Level FlightAware Approximate
01:41AM -23.3787 159.9323 236° Southwest  Level FlightAware Approximate
01:42AM -23.4173 159.8709 236° Southwest  Level FlightAware Approximate
01:43AM -23.4558 159.8095 236° Southwest  Level FlightAware Approximate
01:44AM -23.4944 159.7481 236° Southwest  Level FlightAware Approximate
01:45AM -23.5329 159.6866 236° Southwest  Level FlightAware Approximate
01:45AM -24.6861 157.8043 237° Southwest 34,000  Level Aus ATC (Calculated)
01:46AM -24.7269 157.7367 236° Southwest  Level FlightAware Approximate
01:46AM -24.7836 157.6427 237° Southwest 34,000  Level Aus ATC (Calculated)
01:48AM -24.8528 157.5275 236° Southwest  Level FlightAware Approximate
01:49AM -24.8935 157.4597 237° Southwest  Level FlightAware Approximate
01:50AM -24.9341 157.3919 237° Southwest  Level FlightAware Approximate
01:51AM -24.9748 157.3240 237° Southwest  Level FlightAware Approximate
01:52AM -25.0154 157.2561 237° Southwest  Level FlightAware Approximate
01:53AM -25.0559 157.1881 237° Southwest  Level FlightAware Approximate
01:54AM -25.0965 157.1202 224° Southwest  Level Estimated
01:55AM -25.1459 157.0598 228° Southwest  Level FlightAware Approximate
01:56AM -25.1953 156.9993 228° Southwest  Level FlightAware Approximate
01:57AM -25.2447 156.9388 228° Southwest  Level FlightAware Approximate
01:58AM -25.2941 156.8782 228° Southwest  Level FlightAware Approximate
01:59AM -25.3435 156.8176 228° Southwest  Level FlightAware Approximate
02:00AM -25.3928 156.7569 228° Southwest  Level FlightAware Approximate
02:01AM -25.4421 156.6962 228° Southwest  Level FlightAware Approximate
02:02AM -25.4913 156.6355 228° Southwest  Level FlightAware Approximate
02:03AM -25.5406 156.5747 228° Southwest  Level FlightAware Approximate
02:04AM -25.5898 156.5138 228° Southwest  Level FlightAware Approximate
02:05AM -25.6390 156.4529 228° Southwest  Level FlightAware Approximate
02:05AM -26.2266 155.5087 53° Northeast 16,900  Level Aus ATC (Calculated)
02:06AM -25.6882 156.3919 228° Southwest  Level FlightAware Approximate
02:07AM -25.0407 157.2063 228° Southwest 404 465 32,000  Level Aus ATC (RADAR)
02:07AM -25.0848 157.1239 239° Southwest 406 467 32,000  Level Aus ATC (RADAR)
02:08AM -25.1220 157.0627 236° Southwest 407 468 32,000  Level Aus ATC (RADAR)
02:09AM -25.1733 156.9727 238° Southwest 407 468 32,000  Level Aus ATC (RADAR)
02:09AM -25.1885 156.9455 238° Southwest 408 470 32,000  Level Aus ATC (RADAR)
02:10AM -25.2269 156.8844 235° Southwest 409 471 32,000  Level Aus ATC (RADAR)
02:10AM -25.2919 156.7922 232° Southwest 409 471 32,000  Level Aus ATC (RADAR)
02:11AM -25.3108 156.7548 241° Southwest 406 467 32,000  Level Aus ATC (RADAR)
02:11AM -25.3510 156.6957 233° Southwest 408 470 32,000  Level Aus ATC (RADAR)
02:12AM -25.3959 156.6123 239° Southwest 411 473 32,000  Level Aus ATC (RADAR)
02:13AM -25.4331 156.5497 237° Southwest 412 474 32,000  Level Aus ATC (RADAR)
02:14AM -25.4870 156.4609 236° Southwest 412 474 32,000  Level Aus ATC (RADAR)
02:14AM -25.5128 156.4151 238° Southwest 413 475 32,000  Level Aus ATC (RADAR)
02:15AM -25.5502 156.3525 236° Southwest 413 475 32,000  Level Aus ATC (RADAR)
02:15AM -25.5892 156.2851 238° Southwest 419 482 32,000  Level FlightAware ADS-B (EKCH / CPH)
02:16AM -25.6388 156.1993 237° Southwest 411 473 32,000  Level Aus ATC (RADAR)
02:16AM -25.6544 156.1720 238° Southwest 412 474 32,000  Level Aus ATC (RADAR)
02:17AM -25.6863 156.1188 237° Southwest 418 481 32,000  Level FlightAware ADS-B (EKCH / CPH)
02:17AM -25.7285 156.0481 237° Southwest 412 474 32,000  Level Aus ATC (RADAR)
02:18AM -25.7598 156.0198 237° Southwest 416 479 32,000  Level FlightAware ADS-B (EKCH / CPH)
02:18AM -25.8125 155.9623 224° Southwest 415 478 32,000  Level FlightAware ADS-B (EKCH / CPH)
02:19AM -25.8817 155.8864 224° Southwest 411 473 32,000  Level Aus ATC (RADAR)
02:20AM -25.9095 155.8565 224° Southwest 414 476 32,000  Level FlightAware ADS-B (EKCH / CPH)
02:20AM -25.9651 155.7958 224° Southwest 416 479 32,000  Level FlightAware ADS-B (EKCH / CPH)
02:21AM -26.0146 155.7417 224° Southwest 416 479 32,000  Level FlightAware ADS-B (EKCH / CPH)
02:21AM -26.0544 155.6980 225° Southwest 417 480 32,000  Level FlightAware ADS-B (EKCH / CPH)
02:22AM -26.1008 155.6474 225° Southwest 412 474 32,000  Level Aus ATC (RADAR)
02:23AM -26.1529 155.5898 225° Southwest 419 482 32,000  Level FlightAware ADS-B (EKCH / CPH)
02:23AM -26.1968 155.5415 225° Southwest 420 483 32,000  Level FlightAware ADS-B (EKCH / CPH)
02:24AM -26.2512 155.4816 225° Southwest 421 484 32,000  Level FlightAware ADS-B (EKCH / CPH)
02:24AM -26.2937 155.4348 225° Southwest 422 486 32,000  Level FlightAware ADS-B (EKCH / CPH)
02:25AM -26.3362 155.3878 225° Southwest 412 474 32,000  Level FlightAware ADS-B (EKCH / CPH)
02:25AM -26.3730 155.3471 225° Southwest 397 457 32,000  Level FlightAware ADS-B (EKCH / CPH)
02:26AM -26.4112 155.3046 225° Southwest 373 429 32,000  Level FlightAware ADS-B (EKCH / CPH)
02:26AM -26.4615 155.2489 225° Southwest 371 427 32,000  Level FlightAware ADS-B (EKCH / CPH)
02:27AM -26.4995 155.2069 225° Southwest 372 428 32,000  Level FlightAware ADS-B (EKCH / CPH)
02:27AM -26.5360 155.1666 225° Southwest 372 428 32,000  Level FlightAware ADS-B (EKCH / CPH)
02:28AM -26.5711 155.1278 225° Southwest 373 429 32,000  Level FlightAware ADS-B (EKCH / CPH)
02:29AM -26.6213 155.0719 225° Southwest 373 429 32,000  Level FlightAware ADS-B (EKCH / CPH)
02:29AM -26.6571 155.0319 225° Southwest 374 430 32,000  Level FlightAware ADS-B (EKCH / CPH)
02:30AM -26.6937 154.9911 225° Southwest 375 432 32,000  Level FlightAware ADS-B (EKCH / CPH)
02:30AM -26.7445 154.9344 225° Southwest 376 433 32,000 -120 Level FlightAware ADS-B (EKCH / CPH)
02:31AM -26.7922 154.8810 225° Southwest 363 418 31,900 -360 Descending FlightAware ADS-B (EKCH / CPH)
02:31AM -26.8263 154.8427 225° Southwest 341 392 31,600 -840 Descending FlightAware ADS-B (EKCH / CPH)
02:32AM -26.8594 154.8058 225° Southwest 331 381 31,100 -1,380 Descending FlightAware ADS-B (EKCH / CPH)
02:33AM -26.9230 154.7347 225° Southwest 329 379 29,600 -1,500 Descending FlightAware ADS-B (EKCH / CPH)
02:33AM -26.9563 154.6975 225° Southwest 325 374 28,900 -1,620 Descending FlightAware ADS-B (EKCH / CPH)
02:34AM -26.9882 154.6616 225° Southwest 325 374 28,000 -1,620 Descending FlightAware ADS-B (EKCH / CPH)
02:34AM -27.0196 154.6259 225° Southwest 323 372 27,300 -1,440 Descending FlightAware ADS-B (EKCH / CPH)
02:35AM -27.0514 154.5901 225° Southwest 317 365 26,600 -1,380 Descending FlightAware ADS-B (EKCH / CPH)
02:35AM -27.0821 154.5555 225° Southwest 313 360 25,900 -1,440 Descending FlightAware ADS-B (EKCH / CPH)
02:36AM -27.1147 154.5183 225° Southwest 311 358 25,100 -1,560 Descending Aus ATC (RADAR)
02:36AM -27.1230 154.5096 225° Southwest 311 358 24,900 -1,020 Descending FlightAware ADS-B (EKCH / CPH)
02:37AM -27.1525 154.4763 225° Southwest 299 344 24,500 -900 Descending FlightAware ADS-B (EKCH / CPH)
02:37AM -27.1814 154.4438 225° Southwest 289 333 24,000 -1,140 Descending FlightAware ADS-B (EKCH / CPH)
02:38AM -27.2095 154.4123 225° Southwest 283 326 23,400 -1,500 Descending FlightAware ADS-B (EKCH / CPH)
02:38AM -27.2468 154.3697 225° Southwest 291 335 22,300 -1,680 Descending FlightAware ADS-B (EKCH / CPH)
02:39AM -27.2740 154.3386 225° Southwest 294 338 21,500 -1,380 Descending FlightAware ADS-B (EKCH / CPH)
02:39AM -27.3133 154.2944 225° Southwest 288 331 20,700 -1,140 Descending FlightAware ADS-B (EKCH / CPH)
02:40AM -27.3409 154.2632 225° Southwest 282 325 20,200 -1,200 Descending FlightAware ADS-B (EKCH / CPH)
02:41AM -27.3762 154.2229 225° Southwest 284 327 19,300 -1,440 Descending FlightAware ADS-B (EKCH / CPH)
02:41AM -27.4135 154.1806 225° Southwest 283 326 18,400 -1,320 Descending FlightAware ADS-B (EKCH / CPH)
02:42AM -27.4391 154.1514 225° Southwest 278 320 17,800 -1,200 Descending FlightAware ADS-B (EKCH / CPH)
02:42AM -27.4690 154.1176 225° Southwest 276 318 17,200 -1,200 Descending FlightAware ADS-B (EKCH / CPH)
02:43AM -27.4941 154.0892 225° Southwest 276 318 16,600 -1,200 Descending FlightAware ADS-B (EKCH / CPH)
02:43AM -27.5113 154.0647 231° Southwest 277 319 16,200 -1,080 Descending FlightAware ADS-B (EKCH / CPH)
02:43AM -27.5142 154.0540 253° West 295 339 16,100 -600 Descending FlightAware ADS-B (EKCH / CPH)
02:43AM -27.5154 154.0361 266° West 310 357 16,000 -900 Descending FlightAware ADS-B (EKCH / CPH)
02:44AM -27.5130 154.0179 278° West 321 369 15,800 -1,200 Descending FlightAware ADS-B (EKCH / CPH)
02:44AM -27.5034 153.9658 278° West 319 367 15,200 -1,200 Descending Aus ATC (RADAR)
02:44AM -27.5019 153.9545 278° West 322 371 15,000 -1,680 Descending FlightAware ADS-B (EKCH / CPH)
02:45AM -27.4913 153.8866 280° West 318 366 13,900 -1,560 Descending FlightAware ADS-B (EKCH / CPH)
02:45AM -27.4838 153.8400 280° West 313 360 13,200 -1,500 Descending FlightAware ADS-B (EKCH / CPH)
02:46AM -27.4733 153.7771 281° West 307 353 12,200 -1,620 Descending FlightAware ADS-B (EKCH / CPH)
02:47AM -27.4651 153.7287 281° West 304 350 11,400 -1,500 Descending FlightAware ADS-B (EKCH / CPH)
02:47AM -27.4573 153.6819 281° West 299 344 10,700 -1,500 Descending FlightAware ADS-B (EKCH / CPH)
02:48AM -27.4498 153.6365 280° West 294 338 9,900 -1,560 Descending FlightAware ADS-B (EKCH / CPH)
02:48AM -27.4451 153.6080 280° West 290 334 9,400 -1,500 Descending FlightAware ADS-B (EKCH / CPH)
02:48AM -27.4403 153.5782 280° West 287 330 8,900 -1,500 Descending FlightAware ADS-B (EKCH / CPH)
02:49AM -27.4354 153.5490 281° West 283 326 8,400 -1,380 Descending FlightAware ADS-B (EKCH / CPH)
02:49AM -27.4310 153.5190 279° West 280 322 8,000 -1,200 Descending FlightAware ADS-B (EKCH / CPH)
02:49AM -27.4318 153.5054 266° West 277 319 7,800 -1,200 Descending FlightAware ADS-B (EKCH / CPH)
02:49AM -27.4356 153.4908 254° West 276 318 7,600 -840 Descending FlightAware ADS-B (EKCH / CPH)
02:50AM -27.4467 153.4653 244° Southwest 277 319 7,400 -780 Descending FlightAware ADS-B (EKCH / CPH)
02:50AM -27.4579 153.4397 244° Southwest 276 318 7,100 -780 Descending FlightAware ADS-B (EKCH / CPH)
02:50AM -27.4689 153.4148 244° Southwest 275 316 6,900 -780 Descending FlightAware ADS-B (EKCH / CPH)
02:51AM -27.4808 153.3881 243° Southwest 277 319 6,600 -780 Descending FlightAware ADS-B (EKCH / CPH)
02:51AM -27.4923 153.3622 243° Southwest 279 321 6,400 -780 Descending FlightAware ADS-B (EKCH / CPH)
02:51AM -27.5031 153.3377 244° Southwest 278 320 6,100 -900 Descending FlightAware ADS-B (EKCH / CPH)
02:52AM -27.5148 153.3109 244° Southwest 278 320 5,800 -780 Descending FlightAware ADS-B (EKCH / CPH)
02:52AM -27.5263 153.2845 244° Southwest 274 315 5,600 -780 Descending FlightAware ADS-B (EKCH / CPH)
02:52AM -27.5374 153.2593 244° Southwest 272 313 5,300 -780 Descending FlightAware ADS-B (EKCH / CPH)
02:53AM -27.5478 153.2356 244° Southwest 263 303 5,100 -780 Descending FlightAware ADS-B (EKCH / CPH)
02:53AM -27.5586 153.2111 244° Southwest 258 297 4,800 -780 Descending FlightAware ADS-B (EKCH / CPH)
02:53AM -27.5698 153.1856 244° Southwest 255 293 4,600 -780 Descending FlightAware ADS-B (EKCH / CPH)
02:54AM -27.5799 153.1627 244° Southwest 247 284 4,300 -780 Descending FlightAware ADS-B (EKCH / CPH)
02:54AM -27.5895 153.1407 244° Southwest 238 274 4,100 -600 Descending FlightAware ADS-B (EKCH / CPH)
02:54AM -27.5977 153.1171 249° West 229 264 3,900 -600 Descending FlightAware ADS-B (EKCH / CPH)
02:54AM -27.5975 153.1068 271° West 228 262 3,800 -600 Descending FlightAware ADS-B (EKCH / CPH)
02:55AM -27.5912 153.0827 286° West 226 260 3,600 -600 Descending FlightAware ADS-B (EKCH / CPH)
02:55AM -27.5854 153.0606 286° West 220 253 3,400 -480 Descending FlightAware ADS-B (EKCH / CPH)
02:55AM -27.5785 153.0407 291° West 201 231 3,300 -420 Descending FlightAware ADS-B (EKCH / CPH)
02:56AM -27.5725 153.0348 319° Northwest 187 215 3,200 -600 Descending FlightAware ADS-B (EKCH / CPH)
02:56AM -27.5633 153.0315 342° North 177 204 3,100 -600 Descending FlightAware ADS-B (EKCH / CPH)
02:56AM -27.5560 153.0326 North 175 201 3,000 -420 Descending FlightAware ADS-B (EKCH / CPH)
02:56AM -27.5409 153.0391 21° North 170 196 2,900 -600 Descending FlightAware ADS-B (EKCH / CPH)
02:57AM -27.5273 153.0470 27° Northeast 171 197 2,600 -780 Descending FlightAware ADS-B (EKCH / CPH)
02:57AM -27.5128 153.0552 27° Northeast 167 192 2,400 -780 Descending FlightAware ADS-B (EKCH / CPH)
02:57AM -27.4991 153.0630 27° Northeast 164 189 2,100 -900 Descending FlightAware ADS-B (EKCH / CPH)
02:58AM -27.4861 153.0705 27° Northeast 157 181 1,800 -900 Descending FlightAware ADS-B (EKCH / CPH)
02:58AM -27.4734 153.0778 27° Northeast 141 162 1,500 -780 Descending FlightAware ADS-B (EKCH / CPH)
02:58AM -27.4634 153.0835 27° Northeast 135 155 1,300 -660 Descending FlightAware ADS-B (EKCH / CPH)
02:59AM -27.4516 153.0903 27° Northeast 125 144 1,100 -600 Descending FlightAware ADS-B (EKCH / CPH)
02:59AM -27.4425 153.0955 27° Northeast 123 142 900 -780 Descending FlightAware ADS-B (EKCH / CPH)
02:59AM -27.4312 153.1019 27° Northeast 126 145 600 -780 Descending FlightAware ADS-B (EKCH / CPH)
03:00AM -27.4212 153.1076 27° Northeast 127 146 400 -600 Descending FlightAware ADS-B (EKCH / CPH)
03:00AM -27.4104 153.1139 27° Northeast 124 143 200 -600 Descending FlightAware ADS-B (EKCH / CPH)